sensor_id;sensor_type;location;lat;lon;timestamp;temperature;humidity
51579;DHT22;47998;53.242;6.386;2023-02-19T00:01:15;8.50;99.90
51579;DHT22;47998;53.242;6.386;2023-02-19T00:03:41;8.40;99.90
51579;DHT22;47998;53.242;6.386;2023-02-19T00:06:09;8.30;99.90
51579;DHT22;47998;53.242;6.386;2023-02-19T00:08:37;8.10;99.90
51579;DHT22;47998;53.242;6.386;2023-02-19T00:11:06;8.40;99.90
51579;DHT22;47998;53.242;6.386;2023-02-19T00:13:40;8.10;99.90
51579;DHT22;47998;53.242;6.386;2023-02-19T00:16:52;8.20;99.90
51579;DHT22;47998;53.242;6.386;2023-02-19T00:18:54;8.40;99.90
51579;DHT22;47998;53.242;6.386;2023-02-19T00:21:21;8.00;99.90
51579;DHT22;47998;53.242;6.386;2023-02-19T00:23:51;8.40;99.90
51579;DHT22;47998;53.242;6.386;2023-02-19T00:26:18;8.50;99.90
51579;DHT22;47998;53.242;6.386;2023-02-19T00:28:44;8.50;99.90
51579;DHT22;47998;53.242;6.386;2023-02-19T00:31:30;8.10;99.90
51579;DHT22;47998;53.242;6.386;2023-02-19T00:34:02;8.00;99.90
51579;DHT22;47998;53.242;6.386;2023-02-19T00:36:32;8.10;99.90
51579;DHT22;47998;53.242;6.386;2023-02-19T00:39:00;8.50;99.90
51579;DHT22;47998;53.242;6.386;2023-02-19T00:41:26;8.60;99.90
51579;DHT22;47998;53.242;6.386;2023-02-19T00:44:03;8.40;99.90
51579;DHT22;47998;53.242;6.386;2023-02-19T00:46:38;8.40;99.90
51579;DHT22;47998;53.242;6.386;2023-02-19T00:49:06;8.00;99.90
51579;DHT22;47998;53.242;6.386;2023-02-19T00:51:35;8.60;99.90
51579;DHT22;47998;53.242;6.386;2023-02-19T00:54:02;8.00;99.90
51579;DHT22;47998;53.242;6.386;2023-02-19T00:56:28;7.90;99.90
51579;DHT22;47998;53.242;6.386;2023-02-19T00:58:54;8.30;99.90
51579;DHT22;47998;53.242;6.386;2023-02-19T01:01:20;8.60;99.90
51579;DHT22;47998;53.242;6.386;2023-02-19T01:03:46;8.40;99.90
51579;DHT22;47998;53.242;6.386;2023-02-19T01:06:14;7.90;99.90
51579;DHT22;47998;53.242;6.386;2023-02-19T01:08:41;8.60;99.90
51579;DHT22;47998;53.242;6.386;2023-02-19T01:11:08;8.20;99.90
51579;DHT22;47998;53.242;6.386;2023-02-19T01:13:35;8.50;99.90
51579;DHT22;47998;53.242;6.386;2023-02-19T01:16:07;7.90;99.90
51579;DHT22;47998;53.242;6.386;2023-02-19T01:18:33;8.50;99.90
51579;DHT22;47998;53.242;6.386;2023-02-19T01:21:04;8.30;99.90
51579;DHT22;47998;53.242;6.386;2023-02-19T01:23:31;8.00;99.90
51579;DHT22;47998;53.242;6.386;2023-02-19T01:25:57;8.80;99.90
51579;DHT22;47998;53.242;6.386;2023-02-19T01:28:22;8.20;99.90
51579;DHT22;47998;53.242;6.386;2023-02-19T01:30:48;7.90;99.90
51579;DHT22;47998;53.242;6.386;2023-02-19T01:33:14;8.00;99.90
51579;DHT22;47998;53.242;6.386;2023-02-19T01:35:40;8.10;99.90
51579;DHT22;47998;53.242;6.386;2023-02-19T01:38:05;7.90;99.90
51579;DHT22;47998;53.242;6.386;2023-02-19T01:40:34;7.60;99.90
51579;DHT22;47998;53.242;6.386;2023-02-19T01:43:00;7.40;99.90
51579;DHT22;47998;53.242;6.386;2023-02-19T01:45:30;7.40;99.90
51579;DHT22;47998;53.242;6.386;2023-02-19T01:48:11;7.20;99.90
51579;DHT22;47998;53.242;6.386;2023-02-19T01:50:51;6.30;99.90
51579;DHT22;47998;53.242;6.386;2023-02-19T01:53:21;6.90;99.90
51579;DHT22;47998;53.242;6.386;2023-02-19T01:55:52;6.20;99.90
51579;DHT22;47998;53.242;6.386;2023-02-19T01:58:20;6.70;99.90
51579;DHT22;47998;53.242;6.386;2023-02-19T02:00:46;5.90;99.90
51579;DHT22;47998;53.242;6.386;2023-02-19T02:03:12;6.00;99.90
51579;DHT22;47998;53.242;6.386;2023-02-19T02:05:58;5.80;99.90
51579;DHT22;47998;53.242;6.386;2023-02-19T02:08:26;6.50;99.90
51579;DHT22;47998;53.242;6.386;2023-02-19T02:11:11;6.40;99.90
51579;DHT22;47998;53.242;6.386;2023-02-19T02:13:38;6.70;99.90
51579;DHT22;47998;53.242;6.386;2023-02-19T02:16:23;6.10;99.90
51579;DHT22;47998;53.242;6.386;2023-02-19T02:27:26;6.30;99.90
51579;DHT22;47998;53.242;6.386;2023-02-19T02:30:15;5.60;99.90
51579;DHT22;47998;53.242;6.386;2023-02-19T02:32:55;6.10;99.90
51579;DHT22;47998;53.242;6.386;2023-02-19T02:35:26;5.60;99.90
51579;DHT22;47998;53.242;6.386;2023-02-19T02:37:55;5.50;99.90
51579;DHT22;47998;53.242;6.386;2023-02-19T02:40:22;6.30;99.90
51579;DHT22;47998;53.242;6.386;2023-02-19T02:42:48;5.60;99.90
51579;DHT22;47998;53.242;6.386;2023-02-19T02:53:32;5.60;99.90
51579;DHT22;47998;53.242;6.386;2023-02-19T02:56:20;6.10;99.90
51579;DHT22;47998;53.242;6.386;2023-02-19T02:58:47;5.60;99.90
51579;DHT22;47998;53.242;6.386;2023-02-19T03:01:29;6.00;99.90
51579;DHT22;47998;53.242;6.386;2023-02-19T03:07:00;6.20;99.90
51579;DHT22;47998;53.242;6.386;2023-02-19T03:09:40;5.50;99.90
51579;DHT22;47998;53.242;6.386;2023-02-19T03:12:13;6.20;99.90
51579;DHT22;47998;53.242;6.386;2023-02-19T03:15:02;5.40;99.90
51579;DHT22;47998;53.242;6.386;2023-02-19T03:17:51;5.40;99.90
51579;DHT22;47998;53.242;6.386;2023-02-19T03:20:39;6.20;99.90
51579;DHT22;47998;53.242;6.386;2023-02-19T03:23:10;5.30;99.90
51579;DHT22;47998;53.242;6.386;2023-02-19T03:25:38;5.50;99.90
51579;DHT22;47998;53.242;6.386;2023-02-19T03:28:25;5.40;99.90
51579;DHT22;47998;53.242;6.386;2023-02-19T03:31:13;6.10;99.90
51579;DHT22;47998;53.242;6.386;2023-02-19T03:33:41;6.10;99.90
51579;DHT22;47998;53.242;6.386;2023-02-19T03:36:12;5.30;99.90
51579;DHT22;47998;53.242;6.386;2023-02-19T03:38:48;6.10;99.90
51579;DHT22;47998;53.242;6.386;2023-02-19T03:46:51;6.10;99.90
51579;DHT22;47998;53.242;6.386;2023-02-19T03:49:29;5.90;99.90
51579;DHT22;47998;53.242;6.386;2023-02-19T03:52:15;5.60;99.90
51579;DHT22;47998;53.242;6.386;2023-02-19T04:00:29;5.10;99.90
51579;DHT22;47998;53.242;6.386;2023-02-19T04:05:57;5.70;99.90
51579;DHT22;47998;53.242;6.386;2023-02-19T04:08:25;5.00;99.90
51579;DHT22;47998;53.242;6.386;2023-02-19T04:10:52;5.70;99.90
51579;DHT22;47998;53.242;6.386;2023-02-19T04:15:56;5.00;99.90
51579;DHT22;47998;53.242;6.386;2023-02-19T04:18:28;5.00;99.90
51579;DHT22;47998;53.242;6.386;2023-02-19T04:20:57;5.00;99.90
51579;DHT22;47998;53.242;6.386;2023-02-19T04:23:25;5.50;99.90
51579;DHT22;47998;53.242;6.386;2023-02-19T04:25:56;5.60;99.90
51579;DHT22;47998;53.242;6.386;2023-02-19T04:28:23;5.00;99.90
51579;DHT22;47998;53.242;6.386;2023-02-19T04:30:49;5.30;99.90
51579;DHT22;47998;53.242;6.386;2023-02-19T04:33:14;5.30;99.90
51579;DHT22;47998;53.242;6.386;2023-02-19T04:35:40;5.60;99.90
51579;DHT22;47998;53.242;6.386;2023-02-19T04:38:06;4.70;99.90
51579;DHT22;47998;53.242;6.386;2023-02-19T04:40:32;5.20;99.90
51579;DHT22;47998;53.242;6.386;2023-02-19T04:42:58;4.80;99.90
51579;DHT22;47998;53.242;6.386;2023-02-19T04:45:23;4.70;99.90
51579;DHT22;47998;53.242;6.386;2023-02-19T04:47:49;4.70;99.90
51579;DHT22;47998;53.242;6.386;2023-02-19T04:50:15;5.20;99.90
51579;DHT22;47998;53.242;6.386;2023-02-19T04:52:40;5.20;99.90
51579;DHT22;47998;53.242;6.386;2023-02-19T04:55:07;5.20;99.90
51579;DHT22;47998;53.242;6.386;2023-02-19T04:57:34;5.00;99.90
51579;DHT22;47998;53.242;6.386;2023-02-19T04:59:59;5.00;99.90
51579;DHT22;47998;53.242;6.386;2023-02-19T05:02:25;5.00;99.90
51579;DHT22;47998;53.242;6.386;2023-02-19T05:04:51;4.50;99.90
51579;DHT22;47998;53.242;6.386;2023-02-19T05:07:17;5.10;99.90
51579;DHT22;47998;53.242;6.386;2023-02-19T05:09:43;4.50;99.90
51579;DHT22;47998;53.242;6.386;2023-02-19T05:12:08;4.90;99.90
51579;DHT22;47998;53.242;6.386;2023-02-19T05:14:34;4.40;99.90
51579;DHT22;47998;53.242;6.386;2023-02-19T05:17:00;4.90;99.90
51579;DHT22;47998;53.242;6.386;2023-02-19T05:19:25;4.70;99.90
51579;DHT22;47998;53.242;6.386;2023-02-19T05:21:51;4.60;99.90
51579;DHT22;47998;53.242;6.386;2023-02-19T05:24:17;4.70;99.90
51579;DHT22;47998;53.242;6.386;2023-02-19T05:26:43;5.00;99.90
51579;DHT22;47998;53.242;6.386;2023-02-19T05:29:09;4.70;99.90
51579;DHT22;47998;53.242;6.386;2023-02-19T05:31:34;4.80;99.90
51579;DHT22;47998;53.242;6.386;2023-02-19T05:34:00;4.40;99.90
51579;DHT22;47998;53.242;6.386;2023-02-19T05:36:26;4.50;99.90
51579;DHT22;47998;53.242;6.386;2023-02-19T05:38:54;4.30;99.90
51579;DHT22;47998;53.242;6.386;2023-02-19T05:41:23;4.90;99.90
51579;DHT22;47998;53.242;6.386;2023-02-19T05:43:49;4.40;99.90
51579;DHT22;47998;53.242;6.386;2023-02-19T05:46:17;4.30;99.90
51579;DHT22;47998;53.242;6.386;2023-02-19T05:48:45;4.40;99.90
51579;DHT22;47998;53.242;6.386;2023-02-19T05:51:13;4.30;99.90
51579;DHT22;47998;53.242;6.386;2023-02-19T05:53:39;4.80;99.90
51579;DHT22;47998;53.242;6.386;2023-02-19T05:58:52;4.70;99.90
51579;DHT22;47998;53.242;6.386;2023-02-19T06:01:21;4.10;99.90
51579;DHT22;47998;53.242;6.386;2023-02-19T06:03:47;4.10;99.90
51579;DHT22;47998;53.242;6.386;2023-02-19T06:06:14;4.50;99.90
51579;DHT22;47998;53.242;6.386;2023-02-19T06:08:40;4.80;99.90
51579;DHT22;47998;53.242;6.386;2023-02-19T06:11:06;4.50;99.90
51579;DHT22;47998;53.242;6.386;2023-02-19T06:13:31;4.10;99.90
51579;DHT22;47998;53.242;6.386;2023-02-19T06:15:57;4.30;99.90
51579;DHT22;47998;53.242;6.386;2023-02-19T06:18:23;4.20;99.90
51579;DHT22;47998;53.242;6.386;2023-02-19T06:20:48;4.80;99.90
51579;DHT22;47998;53.242;6.386;2023-02-19T06:23:14;4.90;99.90
51579;DHT22;47998;53.242;6.386;2023-02-19T06:25:40;4.70;99.90
51579;DHT22;47998;53.242;6.386;2023-02-19T06:28:06;5.00;99.90
51579;DHT22;47998;53.242;6.386;2023-02-19T06:30:33;4.70;99.90
51579;DHT22;47998;53.242;6.386;2023-02-19T06:32:59;5.00;99.90
51579;DHT22;47998;53.242;6.386;2023-02-19T06:35:25;5.00;99.90
51579;DHT22;47998;53.242;6.386;2023-02-19T06:37:50;4.30;99.90
51579;DHT22;47998;53.242;6.386;2023-02-19T06:40:16;4.90;99.90
51579;DHT22;47998;53.242;6.386;2023-02-19T06:42:42;4.60;99.90
51579;DHT22;47998;53.242;6.386;2023-02-19T06:45:08;4.10;99.90
51579;DHT22;47998;53.242;6.386;2023-02-19T06:47:33;5.00;99.90
51579;DHT22;47998;53.242;6.386;2023-02-19T06:49:59;4.80;99.90
51579;DHT22;47998;53.242;6.386;2023-02-19T06:58:49;4.50;99.90
51579;DHT22;47998;53.242;6.386;2023-02-19T07:01:15;4.50;99.90
51579;DHT22;47998;53.242;6.386;2023-02-19T07:03:40;4.80;99.90
51579;DHT22;47998;53.242;6.386;2023-02-19T07:06:06;4.90;99.90
51579;DHT22;47998;53.242;6.386;2023-02-19T07:08:32;4.10;99.90
51579;DHT22;47998;53.242;6.386;2023-02-19T07:10:58;4.50;99.90
51579;DHT22;47998;53.242;6.386;2023-02-19T07:13:25;4.20;99.90
51579;DHT22;47998;53.242;6.386;2023-02-19T07:15:56;4.80;99.90
51579;DHT22;47998;53.242;6.386;2023-02-19T07:18:22;4.00;99.90
51579;DHT22;47998;53.242;6.386;2023-02-19T07:20:48;4.60;99.90
51579;DHT22;47998;53.242;6.386;2023-02-19T07:23:13;3.90;99.90
51579;DHT22;47998;53.242;6.386;2023-02-19T07:25:39;4.20;99.90
51579;DHT22;47998;53.242;6.386;2023-02-19T07:28:05;4.70;99.90
51579;DHT22;47998;53.242;6.386;2023-02-19T07:30:31;4.10;99.90
51579;DHT22;47998;53.242;6.386;2023-02-19T07:32:57;4.20;99.90
51579;DHT22;47998;53.242;6.386;2023-02-19T07:35:23;3.60;99.90
51579;DHT22;47998;53.242;6.386;2023-02-19T07:37:49;3.90;99.90
51579;DHT22;47998;53.242;6.386;2023-02-19T07:40:14;4.30;99.90
51579;DHT22;47998;53.242;6.386;2023-02-19T07:42:40;3.70;99.90
51579;DHT22;47998;53.242;6.386;2023-02-19T07:45:06;3.60;99.90
51579;DHT22;47998;53.242;6.386;2023-02-19T07:47:32;3.80;99.90
51579;DHT22;47998;53.242;6.386;2023-02-19T07:49:58;4.00;99.90
51579;DHT22;47998;53.242;6.386;2023-02-19T07:52:25;3.70;99.90
51579;DHT22;47998;53.242;6.386;2023-02-19T07:54:54;4.10;99.90
51579;DHT22;47998;53.242;6.386;2023-02-19T07:57:19;4.40;99.90
51579;DHT22;47998;53.242;6.386;2023-02-19T07:59:45;3.90;99.90
51579;DHT22;47998;53.242;6.386;2023-02-19T08:02:20;4.20;99.90
51579;DHT22;47998;53.242;6.386;2023-02-19T08:05:05;4.40;99.90
51579;DHT22;47998;53.242;6.386;2023-02-19T08:07:34;4.00;99.90
51579;DHT22;47998;53.242;6.386;2023-02-19T08:10:00;3.90;99.90
51579;DHT22;47998;53.242;6.386;2023-02-19T08:12:45;4.20;99.90
51579;DHT22;47998;53.242;6.386;2023-02-19T08:15:37;3.90;99.90
51579;DHT22;47998;53.242;6.386;2023-02-19T08:18:03;4.20;99.90
51579;DHT22;47998;53.242;6.386;2023-02-19T08:20:28;4.30;99.90
51579;DHT22;47998;53.242;6.386;2023-02-19T08:22:56;4.00;99.90
51579;DHT22;47998;53.242;6.386;2023-02-19T08:25:22;4.30;99.90
51579;DHT22;47998;53.242;6.386;2023-02-19T08:27:48;4.20;99.90
51579;DHT22;47998;53.242;6.386;2023-02-19T08:30:14;4.80;99.90
51579;DHT22;47998;53.242;6.386;2023-02-19T08:32:39;4.30;99.90
51579;DHT22;47998;53.242;6.386;2023-02-19T08:35:08;4.60;99.90
51579;DHT22;47998;53.242;6.386;2023-02-19T08:37:38;4.70;99.90
51579;DHT22;47998;53.242;6.386;2023-02-19T08:40:04;4.30;99.90
51579;DHT22;47998;53.242;6.386;2023-02-19T08:42:35;5.00;99.90
51579;DHT22;47998;53.242;6.386;2023-02-19T08:45:03;4.90;99.90
51579;DHT22;47998;53.242;6.386;2023-02-19T08:47:29;5.00;99.90
51579;DHT22;47998;53.242;6.386;2023-02-19T08:49:55;5.10;99.90
51579;DHT22;47998;53.242;6.386;2023-02-19T08:52:21;5.10;99.90
51579;DHT22;47998;53.242;6.386;2023-02-19T08:54:46;4.60;99.90
51579;DHT22;47998;53.242;6.386;2023-02-19T08:57:12;5.10;99.90
51579;DHT22;47998;53.242;6.386;2023-02-19T08:59:38;5.30;99.90
51579;DHT22;47998;53.242;6.386;2023-02-19T09:02:04;5.30;99.90
51579;DHT22;47998;53.242;6.386;2023-02-19T09:04:29;5.40;99.90
51579;DHT22;47998;53.242;6.386;2023-02-19T09:06:55;5.40;99.90
51579;DHT22;47998;53.242;6.386;2023-02-19T09:09:21;5.30;99.90
51579;DHT22;47998;53.242;6.386;2023-02-19T09:11:47;5.40;99.90
51579;DHT22;47998;53.242;6.386;2023-02-19T09:14:12;5.60;99.90
51579;DHT22;47998;53.242;6.386;2023-02-19T09:16:38;5.50;99.90
51579;DHT22;47998;53.242;6.386;2023-02-19T09:19:04;5.50;99.90
51579;DHT22;47998;53.242;6.386;2023-02-19T09:21:30;5.80;99.90
51579;DHT22;47998;53.242;6.386;2023-02-19T09:23:56;5.90;99.90
51579;DHT22;47998;53.242;6.386;2023-02-19T09:26:21;6.10;99.90
51579;DHT22;47998;53.242;6.386;2023-02-19T09:28:48;6.10;99.90
51579;DHT22;47998;53.242;6.386;2023-02-19T09:31:14;6.20;99.90
51579;DHT22;47998;53.242;6.386;2023-02-19T09:33:45;6.20;99.90
51579;DHT22;47998;53.242;6.386;2023-02-19T09:36:11;6.40;99.90
51579;DHT22;47998;53.242;6.386;2023-02-19T09:38:37;6.50;99.90
51579;DHT22;47998;53.242;6.386;2023-02-19T09:41:35;6.60;99.90
51579;DHT22;47998;53.242;6.386;2023-02-19T09:44:02;6.70;99.90
51579;DHT22;47998;53.242;6.386;2023-02-19T09:49:14;8.20;99.90
51579;DHT22;47998;53.242;6.386;2023-02-19T09:51:44;8.90;99.90
51579;DHT22;47998;53.242;6.386;2023-02-19T09:54:20;9.90;99.90
51579;DHT22;47998;53.242;6.386;2023-02-19T09:56:47;9.60;99.90
51579;DHT22;47998;53.242;6.386;2023-02-19T09:59:20;9.40;99.90
51579;DHT22;47998;53.242;6.386;2023-02-19T10:01:51;8.90;99.90
51579;DHT22;47998;53.242;6.386;2023-02-19T10:04:20;8.20;99.90
51579;DHT22;47998;53.242;6.386;2023-02-19T10:06:46;7.80;1.00
51579;DHT22;47998;53.242;6.386;2023-02-19T10:09:21;7.50;99.90
51579;DHT22;47998;53.242;6.386;2023-02-19T10:11:51;7.30;99.90
51579;DHT22;47998;53.242;6.386;2023-02-19T10:14:25;7.10;99.90
51579;DHT22;47998;53.242;6.386;2023-02-19T10:16:53;7.00;99.90
51579;DHT22;47998;53.242;6.386;2023-02-19T10:19:19;6.80;99.90
51579;DHT22;47998;53.242;6.386;2023-02-19T10:21:44;6.70;99.90
51579;DHT22;47998;53.242;6.386;2023-02-19T10:24:19;7.10;99.90
51579;DHT22;47998;53.242;6.386;2023-02-19T10:26:46;7.90;99.90
51579;DHT22;47998;53.242;6.386;2023-02-19T10:29:12;8.60;99.90
51579;DHT22;47998;53.242;6.386;2023-02-19T10:31:37;9.20;1.00
51579;DHT22;47998;53.242;6.386;2023-02-19T10:34:03;10.10;99.90
51579;DHT22;47998;53.242;6.386;2023-02-19T10:36:35;10.50;1.00
51579;DHT22;47998;53.242;6.386;2023-02-19T10:39:48;11.00;1.00
51579;DHT22;47998;53.242;6.386;2023-02-19T10:41:50;11.20;1.00
51579;DHT22;47998;53.242;6.386;2023-02-19T10:44:27;11.40;99.90
51579;DHT22;47998;53.242;6.386;2023-02-19T10:46:58;11.80;1.00
51579;DHT22;47998;53.242;6.386;2023-02-19T10:49:41;11.20;99.90
51579;DHT22;47998;53.242;6.386;2023-02-19T10:52:16;10.60;1.00
51579;DHT22;47998;53.242;6.386;2023-02-19T10:54:48;10.20;99.90
51579;DHT22;47998;53.242;6.386;2023-02-19T10:59:57;9.40;91.10
51579;DHT22;47998;53.242;6.386;2023-02-19T11:02:24;9.20;99.90
51579;DHT22;47998;53.242;6.386;2023-02-19T11:10:28;8.70;99.90
51579;DHT22;47998;53.242;6.386;2023-02-19T11:12:58;8.60;1.00
51579;DHT22;47998;53.242;6.386;2023-02-19T11:15:28;8.60;99.90
51579;DHT22;47998;53.242;6.386;2023-02-19T11:20:52;8.60;1.00
51579;DHT22;47998;53.242;6.386;2023-02-19T11:23:33;8.90;99.90
51579;DHT22;47998;53.242;6.386;2023-02-19T11:26:04;9.00;99.90
51579;DHT22;47998;53.242;6.386;2023-02-19T11:28:40;8.90;99.90
51579;DHT22;47998;53.242;6.386;2023-02-19T11:31:29;8.60;99.90
51579;DHT22;47998;53.242;6.386;2023-02-19T11:34:27;8.50;99.90
51579;DHT22;47998;53.242;6.386;2023-02-19T11:37:15;8.50;99.90
51579;DHT22;47998;53.242;6.386;2023-02-19T11:39:47;8.90;99.90
51579;DHT22;47998;53.242;6.386;2023-02-19T11:47:49;10.00;68.60
51579;DHT22;47998;53.242;6.386;2023-02-19T11:53:27;10.90;73.20
51579;DHT22;47998;53.242;6.386;2023-02-19T11:56:30;11.00;67.80
51579;DHT22;47998;53.242;6.386;2023-02-19T12:18:46;7.80;99.90
51579;DHT22;47998;53.242;6.386;2023-02-19T12:31:57;9.00;1.00
51579;DHT22;47998;53.242;6.386;2023-02-19T12:37:57;9.00;99.90
51579;DHT22;47998;53.242;6.386;2023-02-19T12:43:21;8.80;99.90
51579;DHT22;47998;53.242;6.386;2023-02-19T12:46:06;8.80;1.00
51579;DHT22;47998;53.242;6.386;2023-02-19T12:51:15;8.90;1.00
51579;DHT22;47998;53.242;6.386;2023-02-19T12:53:48;8.90;99.90
51579;DHT22;47998;53.242;6.386;2023-02-19T12:56:22;8.70;96.60
51579;DHT22;47998;53.242;6.386;2023-02-19T12:58:52;8.60;1.00
51579;DHT22;47998;53.242;6.386;2023-02-19T13:01:29;8.50;99.90
51579;DHT22;47998;53.242;6.386;2023-02-19T13:06:38;8.20;99.90
51579;DHT22;47998;53.242;6.386;2023-02-19T13:09:40;8.10;1.00
51579;DHT22;47998;53.242;6.386;2023-02-19T13:12:13;8.20;1.00
51579;DHT22;47998;53.242;6.386;2023-02-19T13:23:24;8.00;99.90
51579;DHT22;47998;53.242;6.386;2023-02-19T13:34:50;8.00;1.00
51579;DHT22;47998;53.242;6.386;2023-02-19T13:37:19;8.10;99.90
51579;DHT22;47998;53.242;6.386;2023-02-19T13:39:51;8.10;99.90
51579;DHT22;47998;53.242;6.386;2023-02-19T13:42:30;8.10;99.90
51579;DHT22;47998;53.242;6.386;2023-02-19T13:44:56;8.30;99.90
51579;DHT22;47998;53.242;6.386;2023-02-19T13:47:46;8.50;99.90
51579;DHT22;47998;53.242;6.386;2023-02-19T13:50:28;8.60;1.00
51579;DHT22;47998;53.242;6.386;2023-02-19T13:52:59;8.60;1.00
51579;DHT22;47998;53.242;6.386;2023-02-19T13:55:48;8.50;99.90
51579;DHT22;47998;53.242;6.386;2023-02-19T13:58:38;8.20;1.00
51579;DHT22;47998;53.242;6.386;2023-02-19T14:01:16;8.20;99.90
51579;DHT22;47998;53.242;6.386;2023-02-19T14:03:54;8.40;99.90
51579;DHT22;47998;53.242;6.386;2023-02-19T14:14:39;8.90;1.00
51579;DHT22;47998;53.242;6.386;2023-02-19T14:30:27;8.90;1.00
51579;DHT22;47998;53.242;6.386;2023-02-19T14:32:53;8.90;99.90
51579;DHT22;47998;53.242;6.386;2023-02-19T14:35:24;8.60;99.90
51579;DHT22;47998;53.242;6.386;2023-02-19T14:37:54;8.50;1.00
51579;DHT22;47998;53.242;6.386;2023-02-19T14:40:25;8.30;99.90
51579;DHT22;47998;53.242;6.386;2023-02-19T14:42:53;8.20;1.00
51579;DHT22;47998;53.242;6.386;2023-02-19T14:45:21;8.20;99.90
51579;DHT22;47998;53.242;6.386;2023-02-19T14:47:47;8.10;99.90
51579;DHT22;47998;53.242;6.386;2023-02-19T14:50:35;8.20;1.00
51579;DHT22;47998;53.242;6.386;2023-02-19T14:53:03;8.40;1.00
51579;DHT22;47998;53.242;6.386;2023-02-19T14:55:32;8.50;99.90
51579;DHT22;47998;53.242;6.386;2023-02-19T14:58:03;8.60;99.90
51579;DHT22;47998;53.242;6.386;2023-02-19T15:00:34;8.60;99.90
51579;DHT22;47998;53.242;6.386;2023-02-19T15:03:02;8.60;99.90
51579;DHT22;47998;53.242;6.386;2023-02-19T15:05:34;8.50;99.90
51579;DHT22;47998;53.242;6.386;2023-02-19T15:08:06;8.40;99.90
51579;DHT22;47998;53.242;6.386;2023-02-19T15:10:34;8.20;1.00
51579;DHT22;47998;53.242;6.386;2023-02-19T15:13:03;7.90;1.00
51579;DHT22;47998;53.242;6.386;2023-02-19T15:15:32;7.90;99.90
51579;DHT22;47998;53.242;6.386;2023-02-19T15:18:02;7.90;99.90
51579;DHT22;47998;53.242;6.386;2023-02-19T15:20:34;8.20;99.90
51579;DHT22;47998;53.242;6.386;2023-02-19T15:23:03;8.40;99.90
51579;DHT22;47998;53.242;6.386;2023-02-19T15:25:32;8.60;99.90
51579;DHT22;47998;53.242;6.386;2023-02-19T15:30:43;8.90;1.00
51579;DHT22;47998;53.242;6.386;2023-02-19T15:33:17;9.10;99.90
51579;DHT22;47998;53.242;6.386;2023-02-19T15:35:48;8.80;99.90
51579;DHT22;47998;53.242;6.386;2023-02-19T15:38:15;8.70;1.00
51579;DHT22;47998;53.242;6.386;2023-02-19T15:40:44;8.50;99.90
51579;DHT22;47998;53.242;6.386;2023-02-19T15:43:22;8.40;99.90
51579;DHT22;47998;53.242;6.386;2023-02-19T15:45:49;8.10;99.90
51579;DHT22;47998;53.242;6.386;2023-02-19T15:48:19;7.90;99.90
51579;DHT22;47998;53.242;6.386;2023-02-19T15:50:59;7.70;3.20
51579;DHT22;47998;53.242;6.386;2023-02-19T15:53:36;7.60;99.90
51579;DHT22;47998;53.242;6.386;2023-02-19T15:56:11;7.40;99.90
51579;DHT22;47998;53.242;6.386;2023-02-19T15:58:50;7.20;99.90
51579;DHT22;47998;53.242;6.386;2023-02-19T16:01:26;6.90;1.00
51579;DHT22;47998;53.242;6.386;2023-02-19T16:03:53;6.70;1.00
51579;DHT22;47998;53.242;6.386;2023-02-19T16:06:21;6.50;99.90
51579;DHT22;47998;53.242;6.386;2023-02-19T16:13:51;5.90;1.00
51579;DHT22;47998;53.242;6.386;2023-02-19T16:16:24;5.80;1.00
51579;DHT22;47998;53.242;6.386;2023-02-19T16:18:51;5.70;1.00
51579;DHT22;47998;53.242;6.386;2023-02-19T16:21:20;5.60;1.00
51579;DHT22;47998;53.242;6.386;2023-02-19T16:23:49;5.40;57.40
51579;DHT22;47998;53.242;6.386;2023-02-19T16:26:16;5.30;45.50
51579;DHT22;47998;53.242;6.386;2023-02-19T16:28:42;5.20;99.90
51579;DHT22;47998;53.242;6.386;2023-02-19T16:31:10;5.00;99.90
51579;DHT22;47998;53.242;6.386;2023-02-19T16:46:50;4.10;99.90
51579;DHT22;47998;53.242;6.386;2023-02-19T16:49:17;4.00;99.90
51579;DHT22;47998;53.242;6.386;2023-02-19T16:51:44;3.90;99.90
51579;DHT22;47998;53.242;6.386;2023-02-19T16:54:11;3.90;99.90
51579;DHT22;47998;53.242;6.386;2023-02-19T16:56:37;4.00;99.90
51579;DHT22;47998;53.242;6.386;2023-02-19T16:59:03;4.10;99.90
51579;DHT22;47998;53.242;6.386;2023-02-19T17:01:29;4.00;99.90
51579;DHT22;47998;53.242;6.386;2023-02-19T17:04:07;3.90;99.90
51579;DHT22;47998;53.242;6.386;2023-02-19T17:06:34;3.80;99.90
51579;DHT22;47998;53.242;6.386;2023-02-19T17:09:03;3.70;99.90
51579;DHT22;47998;53.242;6.386;2023-02-19T17:11:28;3.70;99.90
51579;DHT22;47998;53.242;6.386;2023-02-19T17:13:54;3.70;99.90
51579;DHT22;47998;53.242;6.386;2023-02-19T17:16:26;3.60;99.90
51579;DHT22;47998;53.242;6.386;2023-02-19T17:18:53;3.60;99.90
51579;DHT22;47998;53.242;6.386;2023-02-19T17:21:28;3.60;99.90
51579;DHT22;47998;53.242;6.386;2023-02-19T17:23:55;3.50;99.90
51579;DHT22;47998;53.242;6.386;2023-02-19T17:26:27;3.50;99.90
51579;DHT22;47998;53.242;6.386;2023-02-19T17:28:55;3.50;99.90
51579;DHT22;47998;53.242;6.386;2023-02-19T17:31:21;3.50;99.90
51579;DHT22;47998;53.242;6.386;2023-02-19T17:33:47;3.50;99.90
51579;DHT22;47998;53.242;6.386;2023-02-19T17:36:18;3.50;99.90
51579;DHT22;47998;53.242;6.386;2023-02-19T17:38:44;3.50;99.90
51579;DHT22;47998;53.242;6.386;2023-02-19T17:41:10;3.60;99.90
51579;DHT22;47998;53.242;6.386;2023-02-19T17:43:36;3.50;99.90
51579;DHT22;47998;53.242;6.386;2023-02-19T17:46:01;3.50;99.90
51579;DHT22;47998;53.242;6.386;2023-02-19T17:48:28;3.50;99.90
51579;DHT22;47998;53.242;6.386;2023-02-19T17:50:54;3.40;99.90
51579;DHT22;47998;53.242;6.386;2023-02-19T17:53:20;3.60;99.90
51579;DHT22;47998;53.242;6.386;2023-02-19T17:55:46;3.70;99.90
51579;DHT22;47998;53.242;6.386;2023-02-19T17:58:12;3.80;99.90
51579;DHT22;47998;53.242;6.386;2023-02-19T18:00:38;4.00;99.90
51579;DHT22;47998;53.242;6.386;2023-02-19T18:03:04;4.10;99.90
51579;DHT22;47998;53.242;6.386;2023-02-19T18:05:31;4.10;99.90
51579;DHT22;47998;53.242;6.386;2023-02-19T18:07:57;4.30;99.90
51579;DHT22;47998;53.242;6.386;2023-02-19T18:10:23;4.30;99.90
51579;DHT22;47998;53.242;6.386;2023-02-19T18:12:50;4.40;99.90
51579;DHT22;47998;53.242;6.386;2023-02-19T18:15:18;4.50;99.90
51579;DHT22;47998;53.242;6.386;2023-02-19T18:17:44;4.50;99.90
51579;DHT22;47998;53.242;6.386;2023-02-19T18:20:19;4.60;99.90
51579;DHT22;47998;53.242;6.386;2023-02-19T18:22:45;4.60;99.90
51579;DHT22;47998;53.242;6.386;2023-02-19T18:25:11;4.70;99.90
51579;DHT22;47998;53.242;6.386;2023-02-19T18:27:37;4.80;99.90
51579;DHT22;47998;53.242;6.386;2023-02-19T18:30:03;4.80;99.90
51579;DHT22;47998;53.242;6.386;2023-02-19T18:32:30;4.90;99.90
51579;DHT22;47998;53.242;6.386;2023-02-19T18:34:57;4.90;99.90
51579;DHT22;47998;53.242;6.386;2023-02-19T18:37:25;5.00;99.90
51579;DHT22;47998;53.242;6.386;2023-02-19T18:39:51;5.00;99.90
51579;DHT22;47998;53.242;6.386;2023-02-19T18:42:17;5.10;99.90
51579;DHT22;47998;53.242;6.386;2023-02-19T18:44:46;5.10;99.90
51579;DHT22;47998;53.242;6.386;2023-02-19T18:47:12;5.20;99.90
51579;DHT22;47998;53.242;6.386;2023-02-19T18:49:38;5.20;99.90
51579;DHT22;47998;53.242;6.386;2023-02-19T18:52:04;5.20;99.90
51579;DHT22;47998;53.242;6.386;2023-02-19T18:54:31;5.30;99.90